Time;durP1;ratioP1;P1;durP2;ratioP2;P2;SDS_P1;SDS_P2;PMS_P1;PMS_P2;Temp;Humidity;BMP_temperature;BMP_pressure;BME280_temperature;BME280_humidity;BME280_pressure;Samples;Min_cycle;Max_cycle;Signal;HPM_P1;HPM_P2
2024/03/16 00:01:58;;;;;;;2.57;2.00;;;;;;;11.39;98.82;100213.78;5043447;28;20232;-68
2024/03/16 00:04:25;;;;;;;2.00;1.67;;;;;;;11.35;99.20;100211.44;5043011;28;20213;-68
2024/03/16 00:06:52;;;;;;;3.60;2.30;;;;;;;11.34;99.20;100207.94;5044538;28;20213;-68
2024/03/16 00:09:20;;;;;;;2.53;2.00;;;;;;;11.31;99.12;100212.63;5047405;28;20205;-67
2024/03/16 00:11:46;;;;;;;4.17;1.53;;;;;;;11.31;99.32;100208.16;5043936;28;20225;-66
2024/03/16 00:14:13;;;;;;;3.87;2.07;;;;;;;11.28;99.56;100212.88;5038789;28;20296;-68
2024/03/16 00:16:40;;;;;;;4.03;1.93;;;;;;;11.24;99.60;100214.06;5045863;28;20215;-67
2024/03/16 00:19:06;;;;;;;2.40;1.80;;;;;;;11.20;99.85;100213.44;5046513;28;20201;-67
2024/03/16 00:21:33;;;;;;;2.80;1.57;;;;;;;11.21;100.00;100209.78;5046830;28;20724;-67
2024/03/16 00:24:00;;;;;;;2.40;1.87;;;;;;;11.20;100.00;100215.25;5041139;28;20569;-67
2024/03/16 00:26:26;;;;;;;4.77;1.70;;;;;;;11.20;100.00;100215.25;5037306;28;20209;-65
2024/03/16 00:28:53;;;;;;;1.80;1.10;;;;;;;11.20;100.00;100204.56;5042744;28;20292;-67
2024/03/16 00:31:20;;;;;;;2.27;1.50;;;;;;;11.20;100.00;100216.09;5044998;22;20731;-70
2024/03/16 00:33:47;;;;;;;3.23;1.40;;;;;;;11.17;100.00;100212.78;4982443;28;20308;-67
2024/03/16 00:36:14;;;;;;;4.20;1.60;;;;;;;11.14;100.00;100205.88;4980746;28;20201;-69
2024/03/16 00:38:42;;;;;;;2.70;1.50;;;;;;;11.13;100.00;100217.47;4979641;28;20206;-69
2024/03/16 00:41:08;;;;;;;4.10;1.77;;;;;;;11.16;100.00;100213.75;4981448;28;20249;-68
2024/03/16 00:43:35;;;;;;;3.20;1.60;;;;;;;11.16;100.00;100209.28;4967305;28;20370;-67
2024/03/16 00:46:03;;;;;;;3.07;1.60;;;;;;;11.16;100.00;100213.75;4968706;28;20290;-68
2024/03/16 00:48:29;;;;;;;5.77;2.63;;;;;;;11.16;100.00;100206.59;4966886;28;20701;-69
2024/03/16 00:50:56;;;;;;;3.03;2.13;;;;;;;11.17;100.00;100199.47;4970836;28;20288;-69
2024/03/16 00:53:23;;;;;;;2.37;1.80;;;;;;;11.19;100.00;100197.53;4966755;28;20599;-68
2024/03/16 00:55:49;;;;;;;2.60;1.60;;;;;;;11.19;100.00;100201.06;4965035;28;20263;-68
2024/03/16 00:58:16;;;;;;;4.43;2.03;;;;;;;11.18;100.00;100199.34;4963696;28;20699;-69
2024/03/16 01:00:43;;;;;;;6.27;2.13;;;;;;;11.18;100.00;100193.16;4967775;28;20233;-68
2024/03/16 01:03:10;;;;;;;6.43;2.20;;;;;;;11.16;100.00;100189.75;4965268;28;20218;-70
2024/03/16 01:05:37;;;;;;;3.93;2.00;;;;;;;11.12;100.00;100187.31;4963433;28;20282;-68
2024/03/16 01:08:04;;;;;;;4.37;2.17;;;;;;;11.11;100.00;100188.28;4965656;28;20217;-69
2024/03/16 01:10:31;;;;;;;2.87;2.10;;;;;;;11.11;100.00;100187.44;4966170;28;20204;-68
2024/03/16 01:12:57;;;;;;;5.53;2.10;;;;;;;11.09;100.00;100190.22;4971234;28;20210;-68
2024/03/16 01:15:24;;;;;;;4.67;2.20;;;;;;;11.08;100.00;100185.88;4964956;28;20217;-68
2024/03/16 01:17:51;;;;;;;3.67;2.17;;;;;;;11.06;100.00;100179.78;4963214;28;20700;-70
2024/03/16 01:20:17;;;;;;;2.50;1.90;;;;;;;11.06;100.00;100182.47;4979830;28;20590;-67
2024/03/16 01:22:44;;;;;;;5.13;2.70;;;;;;;11.07;100.00;100186.81;4963451;28;20225;-68
2024/03/16 01:25:12;;;;;;;6.80;2.87;;;;;;;11.10;100.00;100183.09;4961494;28;20304;-68
2024/03/16 01:27:39;;;;;;;5.97;2.60;;;;;;;11.07;100.00;100172.66;4965401;28;20334;-67
2024/03/16 01:30:07;;;;;;;4.63;2.30;;;;;;;11.04;99.90;100172.88;4964362;28;20205;-69
2024/03/16 01:32:33;;;;;;;4.67;2.30;;;;;;;11.01;100.00;100181.94;4960924;28;20249;-68
2024/03/16 01:35:00;;;;;;;3.70;2.20;;;;;;;11.04;99.95;100178.19;4960908;28;20306;-68
2024/03/16 01:37:29;;;;;;;5.80;2.37;;;;;;;10.99;99.75;100180.34;4961562;28;20210;-68
2024/03/16 01:39:56;;;;;;;6.97;2.00;;;;;;;11.02;99.73;100180.13;4977391;28;20241;-68
2024/03/16 01:42:23;;;;;;;4.53;2.17;;;;;;;11.00;99.75;100180.22;4959432;28;20232;-67
2024/03/16 01:45:06;;;;;;;5.63;2.33;;;;;;;11.01;99.36;100179.25;4955137;28;20216;-68
2024/03/16 01:47:33;;;;;;;7.57;2.30;;;;;;;10.96;99.58;100175.22;4964752;28;20205;-68
2024/03/16 01:49:59;;;;;;;6.03;2.43;;;;;;;11.00;99.37;100176.72;4979736;28;20307;-68
2024/03/16 01:52:26;;;;;;;4.13;2.30;;;;;;;10.97;99.41;100184.91;4964188;28;20314;-67
2024/03/16 01:54:53;;;;;;;6.30;2.13;;;;;;;10.97;99.55;100184.91;4963300;28;20212;-68
2024/03/16 01:57:20;;;;;;;4.87;2.20;;;;;;;10.93;99.49;100176.28;4961615;28;20630;-67
2024/03/16 01:59:48;;;;;;;6.37;2.50;;;;;;;10.96;99.68;100186.72;4962065;28;20300;-67
2024/03/16 02:02:24;;;;;;;4.70;2.10;;;;;;;10.98;98.98;100190.13;4962890;28;20230;-68
2024/03/16 02:04:50;;;;;;;6.47;2.40;;;;;;;10.96;98.47;100181.41;4963689;28;20586;-68
2024/03/16 02:07:17;;;;;;;7.73;2.10;;;;;;;10.98;98.57;100178.63;4960259;28;20342;-66
2024/03/16 02:09:44;;;;;;;3.27;1.73;;;;;;;10.98;98.42;100181.28;4966453;28;20210;-68
2024/03/16 02:12:12;;;;;;;4.57;2.70;;;;;;;10.96;98.00;100181.41;4962644;28;20783;-69
2024/03/16 02:14:38;;;;;;;5.20;2.40;;;;;;;10.92;98.16;100171.94;4963574;28;20264;-67
2024/03/16 02:17:08;;;;;;;6.10;2.30;;;;;;;10.91;98.13;100177.38;4964451;28;20205;-68
2024/03/16 02:19:35;;;;;;;5.43;2.33;;;;;;;10.93;97.90;100170.97;4974503;28;20201;-69
2024/03/16 02:22:05;;;;;;;5.23;2.80;;;;;;;10.96;97.71;100170.75;4963315;28;20867;-68
2024/03/16 02:24:32;;;;;;;9.87;3.90;;;;;;;10.95;97.65;100184.16;4964473;28;20214;-69
2024/03/16 02:26:59;;;;;;;5.13;2.90;;;;;;;10.95;97.72;100179.69;4962677;28;20212;-67
2024/03/16 02:29:27;;;;;;;5.67;3.40;;;;;;;10.95;97.45;100179.69;4963922;28;20256;-66
2024/03/16 02:31:54;;;;;;;5.87;3.03;;;;;;;10.95;97.25;100185.03;4963509;28;20325;-71
2024/03/16 02:34:21;;;;;;;9.97;3.60;;;;;;;10.96;97.21;100189.41;4959897;28;20212;-68
2024/03/16 02:36:47;;;;;;;6.10;3.03;;;;;;;10.93;97.33;100184.28;4965269;28;20203;-68
2024/03/16 02:39:14;;;;;;;6.33;3.17;;;;;;;10.96;97.54;100183.22;4964465;28;20261;-70
2024/03/16 02:41:41;;;;;;;6.30;3.40;;;;;;;11.00;97.57;100182.88;4967195;28;20910;-67
2024/03/16 02:44:09;;;;;;;7.57;3.30;;;;;;;11.01;97.26;100189.06;4968207;28;20579;-66
2024/03/16 02:46:35;;;;;;;5.77;2.90;;;;;;;11.00;97.27;100190.03;4966747;28;20213;-68
2024/03/16 02:49:02;;;;;;;5.53;2.90;;;;;;;10.98;97.28;100187.47;4970408;28;20481;-67
2024/03/16 02:51:29;;;;;;;5.13;2.80;;;;;;;10.98;97.59;100186.63;4965173;28;20775;-67
2024/03/16 02:53:56;;;;;;;8.83;3.50;;;;;;;10.96;97.94;100204.53;4968355;28;20695;-68
2024/03/16 02:56:22;;;;;;;8.23;2.80;;;;;;;10.96;98.07;100199.19;4967810;28;20728;-68
2024/03/16 02:58:48;;;;;;;9.37;3.67;;;;;;;10.98;97.86;100200.78;4983067;28;20205;-67
2024/03/16 03:01:16;;;;;;;5.93;2.57;;;;;;;10.98;97.75;100198.13;4969495;28;20793;-69
2024/03/16 03:03:43;;;;;;;4.33;2.80;;;;;;;10.97;98.01;100196.44;4966283;28;20261;-69
2024/03/16 03:06:09;;;;;;;6.17;2.50;;;;;;;11.00;98.19;100203.34;4972336;28;20215;-69
2024/03/16 03:08:36;;;;;;;5.77;2.63;;;;;;;11.01;98.00;100203.25;4967812;28;20214;-66
2024/03/16 03:11:03;;;;;;;4.90;2.07;;;;;;;10.99;98.32;100196.31;4968158;28;20228;-68
2024/03/16 03:13:30;;;;;;;5.20;2.27;;;;;;;10.99;98.54;100199.84;4966863;28;20694;-68
2024/03/16 03:15:57;;;;;;;8.23;2.10;;;;;;;10.99;98.63;100193.66;4964553;28;20216;-68
2024/03/16 03:18:24;;;;;;;5.20;2.10;;;;;;;11.02;98.56;100201.44;4963911;28;20246;-68
2024/03/16 03:20:52;;;;;;;7.17;2.50;;;;;;;11.01;98.45;100195.25;4967202;28;20249;-70
2024/03/16 03:23:19;;;;;;;3.97;1.70;;;;;;;11.04;97.96;100200.38;4994952;28;20594;-69
2024/03/16 03:25:47;;;;;;;3.63;1.93;;;;;;;11.04;97.29;100207.50;4965220;28;20206;-69
2024/03/16 03:28:14;;;;;;;4.10;1.63;;;;;;;11.02;97.42;100215.59;4970653;28;20216;-68
2024/03/16 03:30:41;;;;;;;6.97;2.50;;;;;;;11.03;97.39;100209.31;4966641;28;20200;-68
2024/03/16 03:33:08;;;;;;;5.83;2.40;;;;;;;11.02;97.40;100210.28;4982098;28;20201;-68
2024/03/16 03:35:35;;;;;;;7.03;2.13;;;;;;;11.03;97.99;100206.66;4967288;28;20254;-68
2024/03/16 03:38:02;;;;;;;4.27;2.60;;;;;;;11.00;97.54;100217.53;4962515;28;20301;-67
2024/03/16 03:40:29;;;;;;;3.53;2.40;;;;;;;10.99;97.11;100207.81;4966481;28;20209;-67
2024/03/16 03:42:59;;;;;;;4.00;2.20;;;;;;;10.94;97.16;100209.13;4965789;28;20207;-66
2024/03/16 03:45:37;;;;;;;5.97;2.27;;;;;;;10.92;97.40;100211.91;4967583;28;20218;-68
2024/03/16 03:48:14;;;;;;;8.10;3.00;;;;;;;10.90;97.30;100205.84;4964839;28;20825;-66
2024/03/16 03:50:41;;;;;;;7.60;3.90;;;;;;;10.90;97.39;100208.50;4972851;28;20198;-68
2024/03/16 03:53:08;;;;;;;5.03;2.57;;;;;;;10.86;97.66;100204.34;4969143;28;20752;-68
2024/03/16 03:55:34;;;;;;;6.20;2.77;;;;;;;10.86;97.80;100206.16;4966637;28;20272;-68
2024/03/16 03:58:02;;;;;;;5.53;2.60;;;;;;;10.85;98.06;100199.97;4962810;28;20295;-68
2024/03/16 04:00:29;;;;;;;6.73;2.03;;;;;;;10.89;97.42;100203.28;4967866;28;20579;-68
2024/03/16 04:02:56;;;;;;;4.63;2.30;;;;;;;10.89;97.61;100208.63;4967033;28;20207;-69
2024/03/16 04:05:23;;;;;;;6.07;3.10;;;;;;;10.91;97.66;100210.22;4966312;28;20291;-68
2024/03/16 04:07:49;;;;;;;5.37;2.10;;;;;;;10.86;97.47;100208.81;4964511;28;20571;-69
2024/03/16 04:10:16;;;;;;;4.00;2.00;;;;;;;10.88;97.13;100202.44;4968249;28;20365;-71
2024/03/16 04:12:43;;;;;;;5.20;2.37;;;;;;;10.95;96.30;100205.50;4966725;28;20232;-68
2024/03/16 04:15:10;;;;;;;3.73;2.17;;;;;;;10.89;96.44;100204.13;4966707;28;20209;-69
2024/03/16 04:17:36;;;;;;;4.33;2.43;;;;;;;10.84;96.32;100202.75;4965337;28;20213;-69
2024/03/16 04:20:03;;;;;;;3.00;1.80;;;;;;;10.83;96.25;100196.56;4966330;28;20222;-68
2024/03/16 04:22:31;;;;;;;3.67;1.97;;;;;;;10.85;96.55;100204.47;4965589;28;20243;-70
2024/03/16 04:25:00;;;;;;;5.73;2.37;;;;;;;10.81;96.62;100205.63;4968859;28;20554;-68
2024/03/16 04:27:27;;;;;;;4.07;2.00;;;;;;;10.81;96.69;100214.47;4961434;28;20209;-67
2024/03/16 04:29:54;;;;;;;3.47;1.87;;;;;;;10.77;96.83;100210.31;4965195;28;20293;-68
2024/03/16 04:32:24;;;;;;;7.43;2.30;;;;;;;10.76;97.15;100216.59;4966441;28;20237;-68
2024/03/16 04:34:50;;;;;;;3.60;2.30;;;;;;;10.76;97.21;100211.28;4962974;28;20216;-67
2024/03/16 04:37:18;;;;;;;5.00;2.27;;;;;;;10.82;96.92;100225.97;4967968;28;20233;-67
2024/03/16 04:39:45;;;;;;;4.00;2.00;;;;;;;10.76;96.91;100225.44;4966007;28;20234;-68
2024/03/16 04:42:12;;;;;;;3.33;2.03;;;;;;;10.74;96.86;100231.88;4967181;28;20232;-67
2024/03/16 04:44:39;;;;;;;5.67;2.10;;;;;;;10.75;96.36;100228.22;4963600;28;20209;-68
2024/03/16 04:47:05;;;;;;;3.77;2.00;;;;;;;10.72;96.47;100225.78;4965130;28;20208;-67
2024/03/16 04:49:32;;;;;;;4.03;2.83;;;;;;;10.75;96.16;100233.53;4965280;28;20293;-69
2024/03/16 04:51:59;;;;;;;3.77;2.20;;;;;;;10.73;96.23;100238.16;4962649;28;20315;-69
2024/03/16 04:54:26;;;;;;;5.37;2.57;;;;;;;10.72;96.08;100233.78;4971390;28;20239;-68
2024/03/16 04:56:52;;;;;;;4.63;2.80;;;;;;;10.73;96.06;100231.03;4964468;28;20303;-70
2024/03/16 04:59:19;;;;;;;5.63;2.47;;;;;;;10.68;96.37;100218.97;4963085;28;20658;-67
2024/03/16 05:01:46;;;;;;;5.60;2.37;;;;;;;10.73;96.15;100224.84;4965918;28;20239;-67
2024/03/16 05:04:13;;;;;;;3.33;2.20;;;;;;;10.69;96.21;100223.34;4963655;28;20212;-70
2024/03/16 05:06:40;;;;;;;5.47;2.10;;;;;;;10.69;96.67;100216.22;4964536;28;20250;-68
2024/03/16 05:09:09;;;;;;;4.47;2.00;;;;;;;10.67;97.03;100211.94;4964028;28;20213;-68
2024/03/16 05:11:35;;;;;;;3.57;2.40;;;;;;;10.71;96.69;100214.28;4967257;28;20260;-68
2024/03/16 05:14:05;;;;;;;4.83;2.33;;;;;;;10.66;96.68;100218.22;4962834;28;20760;-68
2024/03/16 05:16:32;;;;;;;3.40;2.60;;;;;;;10.66;96.83;100215.56;4966242;28;20290;-68
2024/03/16 05:19:01;;;;;;;7.10;3.27;;;;;;;10.60;97.06;100219.50;4962588;28;20213;-69
2024/03/16 05:21:28;;;;;;;6.97;3.10;;;;;;;10.57;97.20;100217.06;4964728;28;20271;-69
2024/03/16 05:23:55;;;;;;;5.83;2.80;;;;;;;10.55;97.19;100216.34;4968674;28;20584;-67
2024/03/16 05:26:21;;;;;;;6.00;3.10;;;;;;;10.52;97.52;100215.69;4963696;28;20212;-69
2024/03/16 05:28:48;;;;;;;5.83;3.00;;;;;;;10.51;97.65;100221.97;4962270;28;20223;-69
2024/03/16 05:31:15;;;;;;;7.43;2.80;;;;;;;10.50;97.44;100230.91;4966621;28;20242;-66
2024/03/16 05:33:42;;;;;;;5.67;2.83;;;;;;;10.51;97.77;100243.28;4966814;28;20200;-68
2024/03/16 05:36:12;;;;;;;6.97;3.27;;;;;;;10.50;97.95;100246.88;4964175;28;20214;-66
2024/03/16 05:38:39;;;;;;;4.13;2.70;;;;;;;10.51;97.75;100248.59;4964701;28;20679;-67
2024/03/16 05:41:06;;;;;;;3.57;2.70;;;;;;;10.49;98.11;100250.50;4961466;28;20230;-68
2024/03/16 05:43:33;;;;;;;2.40;2.20;;;;;;;10.50;98.09;100246.88;4972327;28;20220;-70
2024/03/16 05:45:59;;;;;;;3.63;2.40;;;;;;;10.48;98.23;100240.81;4964017;28;20213;-66
2024/03/16 05:48:26;;;;;;;4.97;2.80;;;;;;;10.48;98.74;100254.97;4964635;28;20213;-67
2024/03/16 05:50:53;;;;;;;5.30;3.27;;;;;;;10.50;98.67;100241.56;4969046;28;20679;-70
2024/03/16 05:53:20;;;;;;;5.40;2.80;;;;;;;10.52;98.70;100244.97;4965571;28;20206;-68
2024/03/16 05:55:46;;;;;;;3.57;2.80;;;;;;;10.52;98.42;100252.97;4962253;28;20213;-68
2024/03/16 05:58:16;;;;;;;5.33;3.20;;;;;;;10.47;98.68;100261.25;4979730;28;20255;-68
2024/03/16 06:00:44;;;;;;;4.97;3.30;;;;;;;10.47;98.95;100269.25;4965107;28;20999;-68
2024/03/16 06:03:09;;;;;;;6.03;3.20;;;;;;;10.49;98.97;100269.16;4966121;28;20227;-68
2024/03/16 06:05:36;;;;;;;4.37;3.67;;;;;;;10.51;99.39;100270.75;4965224;28;20245;-68
2024/03/16 06:08:04;;;;;;;5.80;4.17;;;;;;;10.51;100.00;100275.22;4963278;28;20206;-69
2024/03/16 06:10:31;;;;;;;6.17;4.10;;;;;;;10.50;100.00;100268.19;4967308;28;20265;-70
2024/03/16 06:12:57;;;;;;;8.97;4.73;;;;;;;10.49;100.00;100275.31;4966008;28;20279;-69
2024/03/16 06:15:24;;;;;;;6.53;4.77;;;;;;;10.47;100.00;100274.56;4967994;28;20320;-69
2024/03/16 06:17:52;;;;;;;7.90;5.43;;;;;;;10.47;100.00;100290.56;4972802;28;20219;-69
2024/03/16 06:20:18;;;;;;;8.53;5.20;;;;;;;10.47;100.00;100292.34;4968392;28;20240;-68
2024/03/16 06:22:45;;;;;;;8.53;5.37;;;;;;;10.43;100.00;100289.91;4967640;28;20788;-69
2024/03/16 06:25:12;;;;;;;9.57;6.20;;;;;;;10.40;100.00;100295.44;4966730;28;20216;-68
2024/03/16 06:27:43;;;;;;;11.50;6.10;;;;;;;10.40;100.00;100310.56;4966872;28;20354;-67
2024/03/16 06:30:12;;;;;;;10.70;5.63;;;;;;;10.39;100.00;100307.03;4969096;28;20210;-67
2024/03/16 06:32:55;;;;;;;11.70;5.93;;;;;;;10.39;100.00;100304.38;5029419;22;20268;-67
2024/03/16 06:35:22;;;;;;;11.37;6.57;;;;;;;10.34;100.00;100310.97;5026365;28;20206;-67
2024/03/16 06:37:48;;;;;;;8.07;6.10;;;;;;;10.31;100.00;100308.53;5007482;28;20441;-67
2024/03/16 06:40:16;;;;;;;10.60;5.97;;;;;;;10.30;100.00;100315.66;5024157;28;20390;-67
2024/03/16 06:42:42;;;;;;;8.13;5.87;;;;;;;10.29;100.00;100324.59;5010191;28;20246;-68
2024/03/16 06:45:09;;;;;;;10.33;6.43;;;;;;;10.28;100.00;100316.72;5003717;28;20207;-69
2024/03/16 06:47:36;;;;;;;9.77;6.87;;;;;;;10.27;100.00;100323.84;4995337;28;20211;-68
2024/03/16 06:50:06;;;;;;;9.63;6.37;;;;;;;10.28;100.00;100322.03;5004893;28;20199;-67
2024/03/16 06:52:33;;;;;;;9.50;6.27;;;;;;;10.33;100.00;100328.75;5007277;28;20222;-68
2024/03/16 06:55:00;;;;;;;8.20;6.73;;;;;;;10.32;100.00;100327.06;5004152;28;20662;-68
2024/03/16 06:57:26;;;;;;;11.03;7.27;;;;;;;10.32;100.00;100332.38;4986314;28;20239;-67
2024/03/16 06:59:53;;;;;;;13.07;7.10;;;;;;;10.33;100.00;100336.75;4990320;28;20203;-68
2024/03/16 07:02:21;;;;;;;13.40;6.83;;;;;;;10.34;100.00;100332.28;5006494;28;20234;-67
2024/03/16 07:04:49;;;;;;;12.50;7.63;;;;;;;10.39;100.00;100344.31;5006425;28;20679;-67
2024/03/16 07:07:15;;;;;;;13.10;7.83;;;;;;;10.41;100.00;100337.06;4989782;28;20302;-67
2024/03/16 07:09:42;;;;;;;11.87;7.37;;;;;;;10.43;100.00;100347.63;4992135;28;20281;-67
2024/03/16 07:12:09;;;;;;;10.80;6.80;;;;;;;10.46;100.00;100346.56;4989222;28;20643;-67
2024/03/16 07:14:35;;;;;;;14.70;6.60;;;;;;;10.49;100.00;100344.56;4990722;28;20248;-67
2024/03/16 07:17:02;;;;;;;9.27;6.40;;;;;;;10.52;100.00;100357.66;4989310;28;20319;-69
2024/03/16 07:19:30;;;;;;;11.93;7.47;;;;;;;10.55;100.00;100367.25;5005294;28;20671;-69
2024/03/16 07:21:59;;;;;;;9.03;6.40;;;;;;;10.54;100.00;100362.88;5009452;28;20328;-67
2024/03/16 07:24:25;;;;;;;10.70;6.40;;;;;;;10.54;100.00;100363.75;5005230;28;20676;-68
2024/03/16 07:26:52;;;;;;;8.50;6.47;;;;;;;10.57;100.00;100365.34;5005176;28;20237;-67
2024/03/16 07:29:19;;;;;;;9.63;6.47;;;;;;;10.56;100.00;100361.84;5002005;28;20217;-69
2024/03/16 07:31:46;;;;;;;10.43;5.97;;;;;;;10.58;100.00;100364.34;4996663;28;20233;-68
2024/03/16 07:34:12;;;;;;;10.77;6.53;;;;;;;10.61;100.00;100372.16;5011088;28;20626;-67
2024/03/16 07:36:39;;;;;;;9.50;6.23;;;;;;;10.64;100.00;100375.47;5020957;28;20295;-70
2024/03/16 07:39:08;;;;;;;8.97;6.40;;;;;;;10.66;100.00;100381.53;5005490;28;20202;-68
2024/03/16 07:41:35;;;;;;;9.70;6.57;;;;;;;10.70;100.00;100383.03;5029894;28;20610;-67
2024/03/16 07:44:02;;;;;;;9.37;6.70;;;;;;;10.71;100.00;100394.56;5027611;28;20280;-67
2024/03/16 07:46:29;;;;;;;9.83;7.10;;;;;;;10.71;100.00;100398.06;5015418;28;20216;-67
2024/03/16 07:48:59;;;;;;;9.70;6.90;;;;;;;10.72;100.00;100394.44;5023340;28;20208;-67
2024/03/16 07:51:28;;;;;;;15.07;7.20;;;;;;;10.74;100.00;100399.69;5021884;28;20227;-67
2024/03/16 07:53:55;;;;;;;7.97;6.07;;;;;;;10.73;100.00;100408.63;5022480;28;20340;-67
2024/03/16 07:56:22;;;;;;;11.33;7.03;;;;;;;10.71;100.00;100408.72;5024241;28;20343;-67
2024/03/16 07:58:48;;;;;;;8.40;6.23;;;;;;;10.70;100.00;100424.81;5023276;28;20325;-66
2024/03/16 08:01:15;;;;;;;11.50;7.10;;;;;;;10.72;100.00;100465.50;5011805;28;20793;-67
2024/03/16 08:03:43;;;;;;;4.73;3.27;;;;;;;10.69;100.00;100469.22;5021097;28;20264;-67
2024/03/16 08:06:09;;;;;;;3.30;1.63;;;;;;;10.56;100.00;100475.47;5024460;28;20206;-67
2024/03/16 08:08:36;;;;;;;1.77;1.63;;;;;;;10.42;100.00;100482.53;5029628;28;20202;-67
2024/03/16 08:11:04;;;;;;;2.10;1.63;;;;;;;10.33;100.00;100495.59;5026220;28;20293;-68
2024/03/16 08:13:30;;;;;;;2.40;1.80;;;;;;;10.24;100.00;100498.84;5024470;28;20211;-67
2024/03/16 08:15:57;;;;;;;2.10;1.90;;;;;;;10.16;100.00;100504.66;5023333;28;20210;-67
2024/03/16 08:18:24;;;;;;;2.70;1.80;;;;;;;10.06;100.00;100520.31;5023623;28;20206;-67
2024/03/16 08:20:51;;;;;;;2.10;1.90;;;;;;;9.99;100.00;100526.16;5022498;28;20303;-68
2024/03/16 08:23:18;;;;;;;2.43;1.43;;;;;;;9.88;100.00;100537.44;5024004;28;20949;-67
2024/03/16 08:25:46;;;;;;;1.63;1.10;;;;;;;9.70;100.00;100528.81;5024172;28;20202;-67
2024/03/16 08:28:13;;;;;;;2.60;1.10;;;;;;;9.59;100.00;100539.25;5027598;28;20288;-67
2024/03/16 08:30:40;;;;;;;1.93;1.37;;;;;;;9.50;100.00;100542.44;5027158;28;20741;-67
2024/03/16 08:33:07;;;;;;;1.73;1.33;;;;;;;9.44;100.00;100539.31;5013009;28;20240;-67
2024/03/16 08:35:35;;;;;;;1.40;1.30;;;;;;;9.43;100.00;100546.44;5008186;28;20210;-68
2024/03/16 08:38:01;;;;;;;2.27;1.40;;;;;;;9.42;100.00;100552.72;5012361;28;21222;-68
2024/03/16 08:40:28;;;;;;;1.30;1.20;;;;;;;9.43;100.00;100559.75;5005081;28;20304;-70
2024/03/16 08:42:55;;;;;;;1.27;1.17;;;;;;;9.44;100.00;100569.44;5007459;28;20234;-67
2024/03/16 08:45:21;;;;;;;1.50;1.30;;;;;;;9.46;100.00;100575.50;5026659;28;20301;-67
2024/03/16 08:47:48;;;;;;;1.97;1.07;;;;;;;9.42;100.00;100573.13;5012474;28;20305;-68
2024/03/16 08:50:15;;;;;;;1.60;1.13;;;;;;;9.44;100.00;100587.19;5023761;28;20585;-66
2024/03/16 08:52:42;;;;;;;1.63;1.53;;;;;;;9.46;100.00;100590.59;5025859;28;20222;-67
2024/03/16 08:55:12;;;;;;;1.73;1.10;;;;;;;9.45;100.00;100588.88;5023808;28;20205;-68
2024/03/16 08:57:40;;;;;;;1.17;1.00;;;;;;;9.50;100.00;100589.44;5029345;28;20290;-67
2024/03/16 09:00:09;;;;;;;2.33;1.00;;;;;;;9.42;100.00;100592.59;5021212;28;21074;-67
2024/03/16 09:02:35;;;;;;;1.37;1.20;;;;;;;9.40;100.00;100611.28;5023421;28;20694;-67
2024/03/16 09:05:03;;;;;;;1.90;1.20;;;;;;;9.44;100.00;100627.06;5007144;28;20563;-68
2024/03/16 09:07:29;;;;;;;1.53;0.97;;;;;;;9.45;100.00;100632.28;5024354;28;20213;-68
2024/03/16 09:09:57;;;;;;;1.00;0.90;;;;;;;9.50;100.00;100634.63;5024662;28;20217;-67
2024/03/16 09:12:24;;;;;;;2.13;1.10;;;;;;;9.51;100.00;100645.19;5024251;28;20218;-67
2024/03/16 09:14:52;;;;;;;1.83;1.10;;;;;;;9.52;100.00;100648.69;5022123;28;20220;-67
2024/03/16 09:17:19;;;;;;;1.87;1.20;;;;;;;9.54;100.00;100652.13;5012400;28;20221;-67
2024/03/16 09:19:47;;;;;;;1.57;1.47;;;;;;;9.55;100.00;100653.84;5023746;28;20210;-67
2024/03/16 09:22:14;;;;;;;1.43;1.03;;;;;;;9.56;100.00;100658.22;5020461;28;20234;-66
2024/03/16 09:24:41;;;;;;;2.40;1.10;;;;;;;9.54;100.00;100660.97;5024065;28;20206;-67
2024/03/16 09:27:08;;;;;;;2.10;1.30;;;;;;;9.53;100.00;100674.34;5022916;28;20778;-69
2024/03/16 09:29:35;;;;;;;1.97;1.10;;;;;;;9.53;100.00;100684.97;5022623;28;20293;-68
2024/03/16 09:32:02;;;;;;;1.30;1.00;;;;;;;9.56;100.00;100698.09;5008983;28;20240;-67
2024/03/16 09:34:28;;;;;;;0.70;0.70;;;;;;;9.52;100.00;100707.19;5035036;28;20673;-67
2024/03/16 09:36:55;;;;;;;1.17;0.60;;;;;;;9.43;100.00;100713.06;5015780;28;20261;-68
2024/03/16 09:39:26;;;;;;;1.37;0.50;;;;;;;9.29;100.00;100716.50;5033599;28;20233;-67
2024/03/16 09:41:53;;;;;;;0.97;0.37;;;;;;;9.14;99.12;100730.63;5021169;28;20349;-67
2024/03/16 09:44:19;;;;;;;1.43;0.30;;;;;;;9.01;99.67;100734.00;5023413;28;20232;-67
2024/03/16 09:46:46;;;;;;;0.73;0.30;;;;;;;8.91;100.00;100740.75;5028296;28;20211;-67
2024/03/16 09:49:13;;;;;;;1.30;0.50;;;;;;;8.85;100.00;100743.75;5012237;28;20201;-67
2024/03/16 09:51:39;;;;;;;1.47;0.40;;;;;;;8.80;100.00;100742.28;5025358;28;20236;-67
2024/03/16 09:54:08;;;;;;;1.83;1.20;;;;;;;8.78;100.00;100752.97;5010731;28;20202;-69
2024/03/16 09:56:35;;;;;;;1.20;0.60;;;;;;;8.74;100.00;100763.88;5025361;28;20213;-67
2024/03/16 09:59:03;;;;;;;2.17;0.90;;;;;;;8.72;100.00;100765.75;5007234;28;20585;-67
2024/03/16 10:01:31;;;;;;;3.00;0.80;;;;;;;8.67;100.00;100776.59;5018441;28;20250;-67
2024/03/16 10:03:57;;;;;;;4.17;0.80;;;;;;;8.68;100.00;100780.97;5025407;28;20316;-67
2024/03/16 10:06:25;;;;;;;2.63;0.90;;;;;;;8.73;100.00;100784.25;5012279;28;20255;-67
2024/03/16 10:09:09;;;;;;;2.53;0.70;;;;;;;8.77;100.00;100796.44;5027816;28;20674;-66
2024/03/16 10:11:36;;;;;;;6.70;1.40;;;;;;;8.82;100.00;100785.53;5027670;28;20249;-66
2024/03/16 10:14:04;;;;;;;1.50;0.60;;;;;;;8.81;100.00;100789.13;5005647;28;20206;-68
2024/03/16 10:16:32;;;;;;;4.43;1.00;;;;;;;8.68;99.69;100811.03;5025118;28;20226;-67
2024/03/16 10:18:59;;;;;;;1.70;0.70;;;;;;;8.48;98.01;100826.28;5007529;28;20216;-67
2024/03/16 10:21:27;;;;;;;1.93;0.80;;;;;;;8.40;99.23;100831.16;5023765;28;20232;-68
2024/03/16 10:23:54;;;;;;;3.00;0.67;;;;;;;8.37;99.92;100844.56;5028251;28;20261;-68
2024/03/16 10:26:22;;;;;;;2.70;1.10;;;;;;;8.27;100.00;100842.34;5027706;28;20206;-67
2024/03/16 10:28:50;;;;;;;1.17;0.80;;;;;;;8.22;100.00;100841.75;5017344;28;20213;-67
2024/03/16 10:31:17;;;;;;;4.43;0.97;;;;;;;8.21;100.00;100847.13;5020784;28;20361;-69
2024/03/16 10:33:45;;;;;;;1.23;0.83;;;;;;;8.25;100.00;100848.66;5025847;28;20198;-67
2024/03/16 10:36:15;;;;;;;4.73;1.13;;;;;;;8.25;100.00;100854.81;5020349;28;20214;-69
2024/03/16 10:38:42;;;;;;;4.57;1.10;;;;;;;8.30;100.00;100854.59;5027055;28;20268;-66
2024/03/16 10:41:09;;;;;;;4.27;1.07;;;;;;;8.37;100.00;100863.16;5022225;28;20788;-67
2024/03/16 10:43:36;;;;;;;2.90;0.93;;;;;;;8.40;100.00;100865.66;5008015;28;20518;-67
2024/03/16 10:46:05;;;;;;;3.03;0.90;;;;;;;8.42;99.98;100869.09;5022923;28;20297;-68
2024/03/16 10:48:32;;;;;;;4.43;1.10;;;;;;;8.50;100.00;100881.03;5019616;28;20488;-68
2024/03/16 10:51:00;;;;;;;3.50;1.40;;;;;;;8.49;99.62;100874.00;5009123;28;20206;-67
2024/03/16 10:53:26;;;;;;;2.27;1.13;;;;;;;8.56;98.45;100879.88;5020152;28;20206;-67
2024/03/16 10:55:53;;;;;;;4.37;1.53;;;;;;;8.62;99.02;100879.53;5023256;28;20662;-68
2024/03/16 10:58:20;;;;;;;5.73;1.80;;;;;;;8.68;98.16;100884.53;5011116;28;20674;-71
2024/03/16 11:00:48;;;;;;;5.00;1.90;;;;;;;8.73;96.88;100889.59;5045629;28;20230;-71
2024/03/16 11:03:25;;;;;;;8.53;2.60;;;;;;;8.76;94.92;100894.75;5027150;28;20713;-71
2024/03/16 11:05:54;;;;;;;2.10;1.40;;;;;;;8.75;92.90;100890.41;5021955;28;20210;-71
2024/03/16 11:08:36;;;;;;;4.97;1.77;;;;;;;8.76;92.38;100906.25;5017632;28;20214;-71
2024/03/16 11:11:03;;;;;;;8.03;1.40;;;;;;;8.73;90.45;100910.84;5005986;28;20202;-71
2024/03/16 11:13:29;;;;;;;4.67;1.60;;;;;;;8.68;88.01;100917.25;5006278;28;20293;-71
2024/03/16 11:15:57;;;;;;;3.10;1.20;;;;;;;8.60;85.89;100921.22;5019974;28;20322;-71
2024/03/16 11:18:54;;;;;;;3.17;1.10;;;;;;;8.56;83.85;100925.00;5005464;28;20206;-71
2024/03/16 11:21:23;;;;;;;3.67;1.00;;;;;;;8.50;82.50;100939.41;5017704;28;20230;-72
2024/03/16 11:23:51;;;;;;;3.03;1.10;;;;;;;8.50;83.07;100947.38;5040979;28;20326;-72